MHTG/TGU METAR and TAF weather

Enter ICAO airport designator
Station Type Date Time Source
MHTG METAR 2021/09/28 17:00 UTC NOAA

MHTG 281700Z NOSIG


Station Type Date Time Source
MHTG Decoded METAR 2021/09/28 17:00 UTC NOAA

Tegucigalpa, Honduras (MHTG) 14-03N 087-13W 1007M
Sep 28, 2021 - 01:00 PM EDT / 2021.09.28 1700 UTC
ob: MHTG 281700Z NOSIG
cycle: 17

Station Type Date Time Source
MHTG TAF 2021/09/28 18:00 UTC NOAA

TAF MHTG 281700Z 2818/2918 VRB05KT 9999 SCT030TCU FEW035CB TX30/2821Z TN17/2912Z
BECMG 2904/2906 SCT026

Example: see airport list